createdAt,value
2018-09-02T00:01:40.151Z,10.97
2018-09-02T00:04:10.130Z,10.63
2018-09-02T00:06:40.088Z,10.70
2018-09-02T00:09:09.953Z,9.80
2018-09-02T00:11:39.941Z,10.27
2018-09-02T00:14:10.215Z,10.70
2018-09-02T00:16:42.354Z,10.40
2018-09-02T00:19:13.157Z,9.73
2018-09-02T00:21:43.129Z,9.47
2018-09-02T00:24:13.394Z,10.03
2018-09-02T00:26:43.420Z,10.60
2018-09-02T00:29:13.503Z,9.90
2018-09-02T00:31:43.500Z,10.00
2018-09-02T00:34:13.560Z,9.23
2018-09-02T00:36:43.517Z,8.83
2018-09-02T00:39:13.416Z,9.60
2018-09-02T00:41:43.796Z,10.93
2018-09-02T00:44:14.470Z,8.70
2018-09-02T00:46:44.524Z,10.37
2018-09-02T00:49:14.535Z,9.17
2018-09-02T00:51:44.449Z,9.50
2018-09-02T00:54:14.456Z,9.20
2018-09-02T00:56:44.472Z,8.97
2018-09-02T00:59:14.382Z,8.53
2018-09-02T01:01:44.269Z,8.07
2018-09-02T01:04:14.183Z,8.60
2018-09-02T01:06:44.514Z,9.30
2018-09-02T01:09:14.484Z,9.97
2018-09-02T01:11:44.426Z,9.10
2018-09-02T01:14:14.818Z,8.73
2018-09-02T01:16:45.016Z,7.70
2018-09-02T01:19:15.000Z,8.43
2018-09-02T01:21:45.689Z,8.10
2018-09-02T01:24:15.653Z,8.57
2018-09-02T01:26:45.641Z,8.13
2018-09-02T01:29:16.272Z,8.27
2018-09-02T01:31:46.187Z,8.30
2018-09-02T01:34:16.160Z,8.70
2018-09-02T01:36:46.216Z,8.57
2018-09-02T01:39:16.151Z,8.03
2018-09-02T01:41:46.625Z,8.10
2018-09-02T01:44:16.652Z,8.10
2018-09-02T01:46:46.692Z,8.50
2018-09-02T01:49:16.996Z,7.90
2018-09-02T01:51:47.129Z,9.57
2018-09-02T01:54:17.379Z,8.37
2018-09-02T01:56:47.390Z,8.00
2018-09-02T01:59:17.397Z,7.40
2018-09-02T02:01:47.458Z,8.53
2018-09-02T02:04:17.428Z,7.57
2018-09-02T02:06:47.503Z,8.20
2018-09-02T02:09:17.770Z,7.57
2018-09-02T02:11:47.756Z,8.73
2018-09-02T02:14:17.854Z,7.70
2018-09-02T02:16:47.916Z,7.77
2018-09-02T02:19:17.814Z,7.03
2018-09-02T02:21:47.864Z,8.27
2018-09-02T02:24:18.146Z,9.10
2018-09-02T02:26:48.105Z,6.60
2018-09-02T02:29:18.114Z,7.57
2018-09-02T02:31:48.175Z,8.00
2018-09-02T02:34:18.094Z,6.63
2018-09-02T02:36:48.349Z,7.70
2018-09-02T02:39:18.800Z,8.10
2018-09-02T02:41:49.018Z,7.90
2018-09-02T02:44:19.062Z,8.10
2018-09-02T02:46:49.076Z,6.83
2018-09-02T02:49:19.040Z,7.83
2018-09-02T02:51:49.001Z,6.53
2018-09-02T02:54:18.986Z,6.50
2018-09-02T02:56:49.139Z,7.30
2018-09-02T02:59:19.110Z,7.90
2018-09-02T03:01:49.506Z,7.33
2018-09-02T03:04:19.740Z,7.80
2018-09-02T03:06:50.098Z,7.20
2018-09-02T03:09:20.110Z,7.27
2018-09-02T03:11:50.547Z,7.00
2018-09-02T03:14:20.565Z,7.60
2018-09-02T03:16:50.545Z,6.57
2018-09-02T03:19:20.599Z,7.53
2018-09-02T03:21:50.599Z,7.57
2018-09-02T03:24:20.716Z,7.47
2018-09-02T03:26:50.808Z,8.27
2018-09-02T03:29:21.200Z,7.83
2018-09-02T03:31:51.220Z,8.30
2018-09-02T03:34:21.729Z,7.83
2018-09-02T03:36:52.289Z,8.57
2018-09-02T03:39:22.350Z,8.03
2018-09-02T03:41:52.660Z,8.03
2018-09-02T03:44:22.872Z,7.60
2018-09-02T03:46:52.863Z,7.63
2018-09-02T03:49:23.273Z,8.10
2018-09-02T03:51:53.291Z,8.00
2018-09-02T03:54:23.350Z,6.93
2018-09-02T03:56:53.475Z,8.40
2018-09-02T03:59:23.588Z,8.50
2018-09-02T04:01:53.609Z,7.37
2018-09-02T04:04:23.930Z,9.07
2018-09-02T04:06:53.963Z,8.80
2018-09-02T04:09:24.402Z,7.97
2018-09-02T04:11:54.535Z,7.77
2018-09-02T04:14:24.589Z,7.17
2018-09-02T04:16:54.656Z,7.80
2018-09-02T04:19:24.672Z,8.67
2018-09-02T04:21:55.050Z,8.30
2018-09-02T04:24:25.114Z,7.97
2018-09-02T04:26:55.227Z,8.23
2018-09-02T04:29:25.278Z,7.10
2018-09-02T04:31:55.311Z,8.37
2018-09-02T04:34:31.406Z,8.70
2018-09-02T04:37:01.562Z,8.67
2018-09-02T04:39:31.375Z,8.20
2018-09-02T04:42:01.111Z,8.30
2018-09-02T04:47:31.273Z,8.20
2018-09-02T04:50:15.718Z,8.60
2018-09-02T04:52:45.858Z,9.03
2018-09-02T04:55:15.936Z,9.40
2018-09-02T04:57:47.859Z,7.70
2018-09-02T05:00:18.825Z,9.97
2018-09-02T05:02:49.273Z,9.40
2018-09-02T05:05:20.185Z,8.37
2018-09-02T05:07:50.256Z,8.60
2018-09-02T05:10:20.090Z,8.50
2018-09-02T05:12:49.899Z,7.37
2018-09-02T05:15:19.723Z,7.50
2018-09-02T05:17:49.950Z,8.30
2018-09-02T05:20:28.304Z,8.33
2018-09-02T05:22:58.227Z,8.13
2018-09-02T05:25:28.109Z,7.90
2018-09-02T05:27:58.806Z,9.33
2018-09-02T05:30:51.532Z,9.90
2018-09-02T05:33:22.645Z,8.83
2018-09-02T05:35:53.667Z,9.37
2018-09-02T05:38:23.725Z,8.17
2018-09-02T05:40:53.808Z,9.37
2018-09-02T05:43:36.685Z,9.70
2018-09-02T05:46:07.221Z,8.63
2018-09-02T05:48:37.821Z,8.83
2018-09-02T05:51:07.782Z,9.80
2018-09-02T05:53:38.012Z,8.50
2018-09-02T05:56:14.813Z,10.30
2018-09-02T05:58:51.424Z,9.53
2018-09-02T06:01:21.523Z,9.00
2018-09-02T06:03:52.339Z,9.80
2018-09-02T06:06:25.979Z,9.60
2018-09-02T06:09:03.116Z,11.93
2018-09-02T06:11:41.258Z,11.40
2018-09-02T06:14:15.782Z,12.43
2018-09-02T06:16:46.636Z,11.63
2018-09-02T06:19:16.693Z,11.10
2018-09-02T06:21:46.743Z,11.33
2018-09-02T06:24:24.364Z,10.07
2018-09-02T06:26:54.217Z,11.07
2018-09-02T06:29:24.351Z,11.07
2018-09-02T06:31:54.253Z,12.70
2018-09-02T06:34:24.564Z,11.20
2018-09-02T06:37:02.077Z,14.27
2018-09-02T06:39:40.923Z,14.07
2018-09-02T06:42:10.902Z,13.60
2018-09-02T06:44:41.012Z,13.70
2018-09-02T06:47:11.973Z,16.40
2018-09-02T06:49:42.894Z,19.30
2018-09-02T06:52:13.083Z,19.13
2018-09-02T06:54:43.298Z,17.07
2018-09-02T06:57:13.772Z,19.27
2018-09-02T06:59:43.859Z,21.40
2018-09-02T07:02:13.888Z,20.80
2018-09-02T07:04:43.794Z,20.10
2018-09-02T07:07:14.469Z,22.57
2018-09-02T07:09:44.726Z,23.40
2018-09-02T07:12:14.841Z,22.70
2018-09-02T07:14:45.078Z,21.70
2018-09-02T07:17:15.125Z,22.43
2018-09-02T07:19:45.174Z,22.73
2018-09-02T07:22:15.238Z,21.73
2018-09-02T07:24:45.503Z,20.60
2018-09-02T07:27:15.573Z,18.27
2018-09-02T07:29:47.029Z,19.17
2018-09-02T07:32:17.071Z,18.20
2018-09-02T07:34:47.120Z,17.90
2018-09-02T07:37:23.238Z,17.33
2018-09-02T07:39:55.731Z,17.97
2018-09-02T07:42:25.721Z,16.23
2018-09-02T07:44:55.817Z,15.70
2018-09-02T07:47:26.264Z,15.43
2018-09-02T07:49:56.242Z,14.70
2018-09-02T07:52:26.322Z,15.50
2018-09-02T07:54:56.363Z,15.20
2018-09-02T07:57:27.553Z,13.60
2018-09-02T07:59:57.547Z,13.47
2018-09-02T08:02:27.618Z,11.97
2018-09-02T08:04:57.606Z,12.00
2018-09-02T08:07:27.663Z,11.90
2018-09-02T08:09:57.635Z,11.07
2018-09-02T08:12:27.670Z,11.90
2018-09-02T08:14:57.545Z,10.47
2018-09-02T08:17:27.520Z,9.27
2018-09-02T08:20:03.157Z,10.63
2018-09-02T08:22:34.525Z,10.60
2018-09-02T08:25:16.280Z,8.80
2018-09-02T08:27:47.292Z,8.27
2018-09-02T08:30:17.194Z,9.60
2018-09-02T08:32:47.120Z,8.50
2018-09-02T08:35:17.088Z,7.73
2018-09-02T08:37:49.856Z,6.90
2018-09-02T08:40:19.866Z,7.03
2018-09-02T08:42:49.772Z,7.47
2018-09-02T08:45:19.678Z,7.23
2018-09-02T08:47:49.605Z,6.60
2018-09-02T08:50:19.585Z,6.30
2018-09-02T08:52:49.497Z,7.03
2018-09-02T08:55:19.357Z,6.33
2018-09-02T08:57:49.267Z,6.23
2018-09-02T09:00:21.418Z,5.90
2018-09-02T09:02:53.647Z,6.27
2018-09-02T09:05:23.975Z,5.30
2018-09-02T09:07:54.097Z,5.20
2018-09-02T09:10:25.859Z,5.20
2018-09-02T09:12:55.752Z,5.40
2018-09-02T09:15:29.040Z,6.00
2018-09-02T09:17:58.989Z,4.90
2018-09-02T09:20:28.775Z,5.27
2018-09-02T09:22:58.723Z,5.03
2018-09-02T09:25:28.641Z,4.57
2018-09-02T09:27:58.512Z,4.83
2018-09-02T09:30:28.397Z,3.77
2018-09-02T09:32:58.566Z,4.80
2018-09-02T09:35:29.268Z,3.90
2018-09-02T09:37:59.229Z,3.63
2018-09-02T09:40:29.208Z,3.60
2018-09-02T09:43:00.404Z,4.33
2018-09-02T09:45:31.889Z,3.87
2018-09-02T09:48:01.757Z,4.33
2018-09-02T09:50:32.217Z,3.93
2018-09-02T09:53:03.204Z,4.77
2018-09-02T09:55:33.346Z,4.17
2018-09-02T09:58:03.335Z,3.50
2018-09-02T10:00:38.529Z,3.83
2018-09-02T10:03:08.443Z,4.60
2018-09-02T10:05:38.322Z,3.37
2018-09-02T10:08:08.232Z,3.40
2018-09-02T10:10:38.135Z,3.60
2018-09-02T10:13:08.062Z,3.47
2018-09-02T10:15:38.420Z,2.83
2018-09-02T10:18:08.447Z,3.33
2018-09-02T10:20:38.267Z,3.80
2018-09-02T10:23:08.023Z,3.00
2018-09-02T10:25:43.896Z,3.20
2018-09-02T10:28:13.917Z,3.13
2018-09-02T10:30:43.838Z,3.50
2018-09-02T10:33:13.788Z,3.07
2018-09-02T10:35:43.592Z,3.57
2018-09-02T10:38:13.528Z,3.63
2018-09-02T10:40:43.512Z,3.03
2018-09-02T10:43:13.360Z,3.20
2018-09-02T10:45:43.210Z,3.00
2018-09-02T10:48:13.251Z,3.30
2018-09-02T10:50:43.078Z,3.20
2018-09-02T10:56:08.724Z,3.07
2018-09-02T10:58:38.652Z,3.53
2018-09-02T11:01:08.839Z,3.47
2018-09-02T11:03:38.655Z,3.30
2018-09-02T11:06:08.455Z,3.13
2018-09-02T11:08:38.416Z,3.00
2018-09-02T11:11:08.376Z,2.97
2018-09-02T11:13:38.381Z,2.83
2018-09-02T11:16:08.306Z,2.90
2018-09-02T11:18:38.258Z,3.20
2018-09-02T11:21:08.184Z,2.90
2018-09-02T11:23:38.165Z,2.97
2018-09-02T11:26:08.858Z,2.90
2018-09-02T11:28:38.931Z,2.53
2018-09-02T11:31:08.753Z,3.00
2018-09-02T11:33:38.511Z,2.93
2018-09-02T11:36:08.003Z,2.80
2018-09-02T11:38:37.977Z,2.80
2018-09-02T11:41:07.909Z,3.07
2018-09-02T11:43:37.893Z,2.90
2018-09-02T11:46:08.009Z,3.00
2018-09-02T11:48:37.821Z,2.80
2018-09-02T11:51:08.072Z,2.57
2018-09-02T11:53:38.225Z,2.30
2018-09-02T11:56:08.189Z,2.97
2018-09-02T11:58:38.063Z,2.80
2018-09-02T12:01:08.006Z,2.90
2018-09-02T12:03:38.181Z,2.80
2018-09-02T12:06:08.073Z,2.97
2018-09-02T12:08:37.973Z,2.63
2018-09-02T12:11:07.822Z,3.93
2018-09-02T12:13:37.750Z,2.70
2018-09-02T12:16:07.611Z,2.83
2018-09-02T12:18:37.505Z,2.90
2018-09-02T12:21:07.495Z,2.50
2018-09-02T12:23:37.320Z,3.17
2018-09-02T12:26:07.255Z,2.80
2018-09-02T12:28:37.070Z,2.90
2018-09-02T12:31:06.868Z,3.03
2018-09-02T12:33:36.911Z,3.30
2018-09-02T12:36:08.471Z,3.07
2018-09-02T12:38:38.700Z,2.90
2018-09-02T12:41:08.646Z,3.00
2018-09-02T12:43:38.598Z,2.60
2018-09-02T12:46:08.320Z,2.87
2018-09-02T12:48:37.992Z,3.00
2018-09-02T12:51:07.782Z,7.43
2018-09-02T12:53:37.410Z,4.07
2018-09-02T12:56:07.075Z,3.70
2018-09-02T12:58:36.934Z,2.73
2018-09-02T13:01:06.664Z,2.47
2018-09-02T13:03:36.714Z,2.37
2018-09-02T13:06:06.350Z,3.30
2018-09-02T13:08:36.094Z,3.50
2018-09-02T13:11:05.835Z,2.93
2018-09-02T13:13:35.468Z,2.87
2018-09-02T13:16:05.179Z,3.33
2018-09-02T13:18:34.878Z,3.40
2018-09-02T13:21:05.433Z,3.00
2018-09-02T13:23:35.064Z,2.80
2018-09-02T13:26:04.717Z,3.03
2018-09-02T13:28:34.363Z,2.80
2018-09-02T13:31:03.990Z,2.63
2018-09-02T13:33:33.667Z,3.03
2018-09-02T13:36:03.777Z,2.47
2018-09-02T13:38:33.727Z,2.90
2018-09-02T13:41:03.320Z,2.80
2018-09-02T13:43:32.912Z,2.70
2018-09-02T13:46:02.510Z,2.70
2018-09-02T13:48:32.247Z,2.60
2018-09-02T13:51:01.808Z,2.73
2018-09-02T13:53:31.471Z,2.60
2018-09-02T13:56:01.110Z,2.40
2018-09-02T13:58:30.802Z,2.63
2018-09-02T14:01:00.488Z,4.07
2018-09-02T14:03:30.067Z,3.20
2018-09-02T14:05:59.734Z,2.73
2018-09-02T14:08:29.358Z,2.70
2018-09-02T14:10:58.999Z,2.93
2018-09-02T14:13:28.624Z,2.33
2018-09-02T14:15:58.316Z,3.40
2018-09-02T14:18:27.988Z,5.93
2018-09-02T14:20:57.676Z,6.23
2018-09-02T14:23:27.345Z,3.13
2018-09-02T14:25:57.027Z,2.57
2018-09-02T14:28:26.641Z,2.77
2018-09-02T14:30:56.322Z,2.60
2018-09-02T14:33:25.963Z,3.27
2018-09-02T14:35:55.736Z,2.33
2018-09-02T14:38:25.366Z,3.73
2018-09-02T14:40:55.033Z,2.77
2018-09-02T14:43:24.711Z,2.90
2018-09-02T14:45:54.362Z,2.60
2018-09-02T14:48:23.968Z,2.60
2018-09-02T14:50:53.640Z,2.40
2018-09-02T14:53:23.234Z,2.30
2018-09-02T14:55:52.856Z,3.10
2018-09-02T14:58:22.570Z,2.60
2018-09-02T15:00:52.246Z,2.73
2018-09-02T15:03:21.889Z,2.47
2018-09-02T15:05:51.603Z,2.53
2018-09-02T15:08:21.270Z,3.00
2018-09-02T15:10:50.990Z,2.63
2018-09-02T15:13:20.866Z,2.67
2018-09-02T15:15:50.473Z,2.30
2018-09-02T15:18:20.176Z,2.67
2018-09-02T15:20:49.809Z,2.70
2018-09-02T15:23:19.457Z,2.50
2018-09-02T15:25:49.354Z,2.77
2018-09-02T15:28:19.487Z,3.00
2018-09-02T15:30:49.131Z,2.27
2018-09-02T15:33:18.804Z,2.80
2018-09-02T15:35:48.731Z,2.87
2018-09-02T15:38:18.400Z,2.60
2018-09-02T15:40:48.077Z,3.23
2018-09-02T15:43:17.812Z,2.60
2018-09-02T15:45:47.498Z,2.17
2018-09-02T15:48:17.143Z,3.30
2018-09-02T15:50:46.784Z,2.83
2018-09-02T15:53:16.474Z,2.83
2018-09-02T15:55:46.485Z,5.40
2018-09-02T15:58:17.055Z,2.93
2018-09-02T16:00:46.994Z,2.60
2018-09-02T16:03:16.728Z,2.57
2018-09-02T16:05:46.424Z,2.70
2018-09-02T16:08:16.083Z,2.70
2018-09-02T16:10:45.685Z,2.63
2018-09-02T16:13:15.288Z,3.13
2018-09-02T16:15:44.923Z,2.60
2018-09-02T16:18:14.556Z,2.50
2018-09-02T16:20:44.208Z,3.80
2018-09-02T16:23:13.839Z,2.50
2018-09-02T16:25:43.471Z,2.57
2018-09-02T16:28:25.746Z,3.67
2018-09-02T16:30:55.400Z,2.80
2018-09-02T16:33:25.060Z,3.10
2018-09-02T16:35:54.749Z,4.40
2018-09-02T16:38:41.974Z,3.20
2018-09-02T16:41:11.896Z,2.90
2018-09-02T16:43:41.451Z,2.67
2018-09-02T16:46:11.110Z,2.33
2018-09-02T16:48:41.021Z,2.43
2018-09-02T16:51:10.909Z,2.70
2018-09-02T16:53:40.582Z,2.87
2018-09-02T16:56:10.248Z,2.80
2018-09-02T16:58:39.978Z,3.30
2018-09-02T17:01:09.569Z,2.97
2018-09-02T17:03:42.290Z,2.90
2018-09-02T17:06:11.964Z,2.87
2018-09-02T17:08:41.560Z,2.90
2018-09-02T17:11:11.194Z,2.80
2018-09-02T17:13:40.859Z,2.70
2018-09-02T17:16:10.481Z,2.67
2018-09-02T17:18:40.191Z,3.33
2018-09-02T17:21:20.540Z,2.50
2018-09-02T17:23:50.925Z,2.63
2018-09-02T17:26:20.562Z,2.83
2018-09-02T17:28:51.191Z,2.87
2018-09-02T17:31:21.888Z,2.73
2018-09-02T17:33:53.551Z,2.92
2018-09-02T17:36:28.027Z,2.50
2018-09-02T17:38:58.115Z,2.90
2018-09-02T17:41:28.072Z,2.50
2018-09-02T17:44:03.242Z,2.80
2018-09-02T17:46:33.017Z,2.87
2018-09-02T17:49:02.887Z,3.60
2018-09-02T17:51:32.858Z,2.70
2018-09-02T17:54:02.462Z,2.50
2018-09-02T17:56:32.159Z,2.90
2018-09-02T17:59:01.929Z,2.80
2018-09-02T18:01:31.664Z,2.67
2018-09-02T18:04:01.521Z,2.47
2018-09-02T18:06:31.167Z,2.50
2018-09-02T18:09:00.818Z,2.77
2018-09-02T18:11:30.444Z,2.70
2018-09-02T18:14:00.103Z,2.70
2018-09-02T18:16:30.168Z,3.23
2018-09-02T18:18:59.859Z,2.80
2018-09-02T18:21:29.553Z,2.37
2018-09-02T18:23:59.356Z,2.60
2018-09-02T18:26:29.096Z,2.70
2018-09-02T18:28:58.815Z,2.60
2018-09-02T18:31:28.496Z,3.30
2018-09-02T18:33:58.985Z,3.17
2018-09-02T18:36:43.004Z,2.53
2018-09-02T18:39:15.863Z,2.87
2018-09-02T18:41:45.691Z,5.63
2018-09-02T18:44:25.245Z,4.67
2018-09-02T18:46:57.061Z,20.70
2018-09-02T18:49:28.430Z,3.37
2018-09-02T18:51:58.557Z,2.90
2018-09-02T18:54:30.405Z,2.43
2018-09-02T18:57:00.210Z,2.43
2018-09-02T18:59:29.921Z,3.13
2018-09-02T19:01:59.679Z,3.33
2018-09-02T19:04:30.911Z,2.60
2018-09-02T19:07:06.688Z,2.90
2018-09-02T19:09:36.582Z,2.70
2018-09-02T19:12:06.863Z,2.77
2018-09-02T19:14:36.844Z,3.03
2018-09-02T19:17:06.748Z,2.83
2018-09-02T19:19:36.491Z,2.83
2018-09-02T19:22:06.690Z,2.80
2018-09-02T19:24:36.447Z,3.40
2018-09-02T19:27:06.281Z,2.80
2018-09-02T19:29:36.366Z,2.77
2018-09-02T19:32:06.253Z,2.30
2018-09-02T19:34:35.973Z,3.07
2018-09-02T19:37:05.786Z,2.27
2018-09-02T19:39:35.499Z,3.17
2018-09-02T19:42:05.315Z,2.60
2018-09-02T19:44:35.031Z,3.20
2018-09-02T19:47:04.958Z,3.10
2018-09-02T19:49:34.865Z,3.10
2018-09-02T19:52:05.169Z,2.47
2018-09-02T19:54:34.851Z,3.20
2018-09-02T19:57:04.628Z,2.57
2018-09-02T19:59:34.434Z,2.57
2018-09-02T20:02:04.483Z,2.73
2018-09-02T20:04:46.955Z,3.00
2018-09-02T20:07:16.776Z,2.70
2018-09-02T20:09:46.407Z,2.80
2018-09-02T20:12:16.191Z,2.47
2018-09-02T20:14:45.941Z,3.07
2018-09-02T20:17:15.661Z,2.73
2018-09-02T20:19:46.263Z,3.13
2018-09-02T20:22:15.939Z,2.20
2018-09-02T20:24:45.741Z,2.73
2018-09-02T20:27:16.264Z,3.07
2018-09-02T20:29:46.032Z,3.10
2018-09-02T20:32:15.668Z,2.80
2018-09-02T20:34:45.346Z,2.70
2018-09-02T20:37:15.011Z,2.90
2018-09-02T20:39:45.432Z,3.00
2018-09-02T20:42:15.358Z,3.30
2018-09-02T20:44:48.904Z,3.03
2018-09-02T20:47:18.998Z,2.87
2018-09-02T20:49:49.070Z,3.20
2018-09-02T20:52:20.810Z,2.83
2018-09-02T20:54:51.015Z,3.30
2018-09-02T20:57:22.027Z,2.97
2018-09-02T20:59:51.974Z,3.47
2018-09-02T21:02:22.003Z,3.20
2018-09-02T21:04:51.746Z,3.43
2018-09-02T21:07:21.442Z,3.37
2018-09-02T21:09:51.431Z,3.20
2018-09-02T21:12:21.095Z,3.20
2018-09-02T21:14:50.925Z,3.70
2018-09-02T21:17:20.604Z,3.07
2018-09-02T21:20:12.461Z,3.50
2018-09-02T21:22:42.287Z,3.63
2018-09-02T21:25:12.218Z,3.53
2018-09-02T21:27:41.960Z,3.60
2018-09-02T21:30:11.623Z,3.33
2018-09-02T21:32:41.297Z,3.10
2018-09-02T21:35:16.903Z,3.30
2018-09-02T21:37:46.998Z,3.70
2018-09-02T21:40:17.097Z,3.60
2018-09-02T21:42:48.032Z,3.80
2018-09-02T21:45:17.739Z,3.63
2018-09-02T21:47:47.362Z,3.60
2018-09-02T21:50:17.600Z,3.90
2018-09-02T21:52:47.667Z,3.23
2018-09-02T21:55:17.595Z,3.40
2018-09-02T21:57:47.445Z,4.07
2018-09-02T22:00:18.033Z,3.73
2018-09-02T22:02:47.666Z,3.90
2018-09-02T22:05:18.327Z,3.57
2018-09-02T22:07:48.176Z,3.87
2018-09-02T22:10:18.036Z,4.00
2018-09-02T22:13:19.363Z,4.13
2018-09-02T22:16:08.831Z,3.70
2018-09-02T22:28:14.910Z,4.20
2018-09-02T22:30:44.751Z,4.40
2018-09-02T22:33:15.063Z,4.40
2018-09-02T22:35:45.632Z,4.50
2018-09-02T22:41:40.149Z,4.60
2018-09-02T22:44:09.959Z,4.90
2018-09-02T22:46:39.727Z,5.17
2018-09-02T22:49:09.428Z,4.90
2018-09-02T22:51:40.346Z,4.47
2018-09-02T22:54:11.025Z,5.20
2018-09-02T22:56:41.725Z,4.77
2018-09-02T22:59:11.849Z,4.80
2018-09-02T23:01:41.978Z,5.00
2018-09-02T23:04:12.148Z,4.43
2018-09-02T23:06:41.923Z,4.43
2018-09-02T23:09:12.316Z,4.90
2018-09-02T23:12:06.612Z,4.97
2018-09-02T23:14:36.755Z,4.20
2018-09-02T23:17:06.475Z,4.70
2018-09-02T23:20:21.516Z,5.20
2018-09-02T23:23:09.002Z,4.70
2018-09-02T23:25:38.913Z,4.60
2018-09-02T23:28:09.769Z,5.10
2018-09-02T23:31:08.320Z,4.83
2018-09-02T23:33:38.402Z,5.17
2018-09-02T23:36:34.889Z,4.60
2018-09-02T23:39:06.590Z,4.43
2018-09-02T23:41:52.994Z,4.77
2018-09-02T23:44:22.800Z,4.43
2018-09-02T23:46:52.641Z,5.47
2018-09-02T23:49:37.162Z,5.70
2018-09-02T23:52:07.391Z,5.10
2018-09-02T23:55:07.761Z,4.87
2018-09-02T23:57:37.615Z,5.37
